| time (UTC) | temp F | wind direction | speed MPH | gust MPH | rain 1hr in | rain 24hr in | rain mn in | humidity % | barometer mb |
| 20260504190003 | 78 | 212 | 5.0 | 14.0 | 0.00 | 0.00 | 0.00 | 36 | 1012.7 |
| 20260504185503 | 78 | 244 | 6.0 | 14.0 | 0.00 | 0.00 | 0.00 | 36 | 1012.7 |
| 20260504185003 | 78 | 202 | 4.0 | 8.0 | 0.00 | 0.00 | 0.00 | 36 | 1012.7 |
| 20260504184503 | 78 | 273 | 4.0 | 12.0 | 0.00 | 0.00 | 0.00 | 35 | 1012.8 |
| 20260504184003 | 78 | 254 | 5.0 | 12.0 | 0.00 | 0.00 | 0.00 | 36 | 1012.8 |
| 20260504183504 | 79 | 206 | 6.0 | 15.0 | 0.00 | 0.00 | 0.00 | 36 | 1012.9 |
| 20260504183118 | 78 | 233 | 6.0 | 15.0 | 0.00 | 0.00 | 0.00 | 35 | 1012.9 |
| 20260504182503 | 79 | 234 | 5.0 | 15.0 | 0.00 | 0.00 | 0.00 | 35 | 1012.9 |
| 20260504182003 | 78 | 191 | 3.0 | 15.0 | 0.00 | 0.00 | 0.00 | 35 | 1012.8 |
| 20260504181503 | 78 | 232 | 8.0 | 15.0 | 0.00 | 0.00 | 0.00 | 35 | 1013.1 |
| 20260504181003 | 78 | 243 | 6.0 | 15.0 | 0.00 | 0.00 | 0.00 | 35 | 1013.1 |
| 20260504180504 | 78 | 232 | 3.0 | 15.0 | 0.00 | 0.00 | 0.00 | 35 | 1013.3 |
| 20260504180119 | 78 | 225 | 4.0 | 12.0 | 0.00 | 0.00 | 0.00 | 36 | 1013.3 |
| 20260504175503 | 78 | 197 | 4.0 | 11.0 | 0.00 | 0.00 | 0.00 | 38 | 1013.3 |
| 20260504175003 | 78 | 229 | 5.0 | 11.0 | 0.00 | 0.00 | 0.00 | 37 | 1013.3 |
| 20260504174503 | 77 | 215 | 4.0 | 12.0 | 0.00 | 0.00 | 0.00 | 38 | 1013.4 |
| 20260504174003 | 77 | 231 | 6.0 | 18.0 | 0.00 | 0.00 | 0.00 | 37 | 1013.4 |
| 20260504173503 | 76 | 216 | 5.0 | 18.0 | 0.00 | 0.00 | 0.00 | 38 | 1013.6 |
| 20260504173003 | 77 | 239 | 7.0 | 17.0 | 0.00 | 0.00 | 0.00 | 37 | 1013.7 |
| 20260504172503 | 77 | 250 | 5.0 | 12.0 | 0.00 | 0.00 | 0.00 | 39 | 1013.8 |
| 20260504172003 | 77 | 232 | 3.0 | 12.0 | 0.00 | 0.00 | 0.00 | 41 | 1013.7 |
| 20260504171503 | 76 | 269 | 4.0 | 13.0 | 0.00 | 0.00 | 0.00 | 38 | 1013.9 |
| 20260504171003 | 77 | 247 | 5.0 | 13.0 | 0.00 | 0.00 | 0.00 | 39 | 1014.1 |
| 20260504170503 | 77 | 256 | 2.0 | 10.0 | 0.00 | 0.00 | 0.00 | 39 | 1014.1 |
| 20260504151003 | 71 | 234 | 7.0 | 16.0 | 0.00 | 0.00 | 0.00 | 48 | 1015.0 |
| 20260504150503 | 70 | 232 | 5.0 | 15.0 | 0.00 | 0.00 | 0.00 | 48 | 1015.0 |
| 20260504141003 | 68 | 239 | 6.0 | 19.0 | 0.00 | 0.00 | 0.00 | 51 | 1015.5 |
| 20260504140619 | 68 | 245 | 8.0 | 16.0 | 0.00 | 0.00 | 0.00 | 51 | 1015.5 |
| 20260504130503 | 62 | 219 | 1.0 | 4.0 | 0.00 | 0.00 | 0.00 | 64 | 1015.5 |
| 20260504130118 | 61 | 198 | 1.0 | 4.0 | 0.00 | 0.00 | 0.00 | 65 | 1015.6 |
| 20260504110618 | 46 | 0 | 0.0 | 0.0 | 0.00 | 0.00 | 0.00 | 93 | 1014.9 |
| 20260504100503 | 46 | 0 | 0.0 | 0.0 | 0.00 | 0.00 | 0.00 | 92 | 1014.7 |
| 20260504100118 | 46 | 0 | 0.0 | 0.0 | 0.00 | 0.00 | 0.00 | 92 | 1014.7 |
| 20260504082003 | 48 | 0 | 0.0 | 0.0 | 0.00 | 0.00 | 0.00 | 88 | 1014.7 |
| 20260504081503 | 48 | 0 | 0.0 | 0.0 | 0.00 | 0.00 | 0.00 | 88 | 1014.7 |
| 20260504081004 | 48 | 0 | 0.0 | 0.0 | 0.00 | 0.00 | 0.00 | 88 | 1014.8 |
| 20260504080504 | 48 | 0 | 0.0 | 0.0 | 0.00 | 0.00 | 0.00 | 88 | 1014.8 |
| 20260504050504 | 50 | 0 | 0.0 | 0.0 | 0.00 | 0.00 | 0.00 | 83 | 1016.3 |
| 20260504050003 | 50 | 0 | 0.0 | 0.0 | 0.00 | 0.00 | 0.00 | 83 | 1016.4 |
| 20260504045503 | 50 | 0 | 0.0 | 0.0 | 0.00 | 0.00 | 0.00 | 82 | 1016.4 |
| 20260504045004 | 50 | 0 | 0.0 | 0.0 | 0.00 | 0.00 | 0.00 | 82 | 1016.2 |
| 20260504044618 | 50 | 0 | 0.0 | 0.0 | 0.00 | 0.00 | 0.00 | 80 | 1016.3 |
| 20260504044003 | 51 | 0 | 0.0 | 0.0 | 0.00 | 0.00 | 0.00 | 80 | 1016.4 |
| 20260504043503 | 51 | 0 | 0.0 | 0.0 | 0.00 | 0.00 | 0.00 | 80 | 1016.5 |
| 20260504043003 | 51 | 0 | 0.0 | 0.0 | 0.00 | 0.00 | 0.00 | 80 | 1016.6 |
| 20260504042503 | 51 | 0 | 0.0 | 0.0 | 0.00 | 0.00 | 0.00 | 79 | 1016.5 |
| 20260504042003 | 51 | 0 | 0.0 | 0.0 | 0.00 | 0.00 | 0.00 | 79 | 1016.5 |
| 20260504041503 | 51 | 0 | 0.0 | 0.0 | 0.00 | 0.00 | 0.00 | 79 | 1016.6 |
| 20260504041004 | 52 | 0 | 0.0 | 0.0 | 0.00 | 0.00 | 0.00 | 79 | 1016.5 |
| 20260504040618 | 52 | 0 | 0.0 | 0.0 | 0.00 | 0.00 | 0.00 | 78 | 1016.6 |
| 20260504040003 | 52 | 0 | 0.0 | 0.0 | 0.00 | 0.00 | 0.00 | 79 | 1016.5 |
| 20260504035503 | 52 | 0 | 0.0 | 0.0 | 0.00 | 0.00 | 0.00 | 79 | 1016.6 |
| 20260504035003 | 52 | 0 | 0.0 | 0.0 | 0.00 | 0.00 | 0.00 | 79 | 1016.6 |
| 20260504034503 | 52 | 0 | 0.0 | 0.0 | 0.00 | 0.00 | 0.00 | 78 | 1016.5 |
| 20260504034118 | 52 | 0 | 0.0 | 0.0 | 0.00 | 0.00 | 0.00 | 76 | 1016.5 |
| 20260504033503 | 52 | 0 | 0.0 | 0.0 | 0.00 | 0.00 | 0.00 | 74 | 1016.5 |
| 20260504033003 | 52 | 0 | 0.0 | 0.0 | 0.00 | 0.00 | 0.00 | 74 | 1016.6 |
| 20260504032503 | 53 | 0 | 0.0 | 0.0 | 0.00 | 0.00 | 0.00 | 72 | 1016.6 |
| 20260504032004 | 53 | 0 | 0.0 | 0.0 | 0.00 | 0.00 | 0.00 | 72 | 1016.5 |
| 20260504031618 | 53 | 0 | 0.0 | 0.0 | 0.00 | 0.00 | 0.00 | 71 | 1016.6 |
| 20260504031003 | 53 | 0 | 0.0 | 0.0 | 0.00 | 0.00 | 0.00 | 70 | 1016.6 |
| 20260504030618 | 53 | 0 | 0.0 | 0.0 | 0.00 | 0.00 | 0.00 | 69 | 1016.6 |
| 20260504030003 | 54 | 0 | 0.0 | 0.0 | 0.00 | 0.00 | 0.00 | 69 | 1016.6 |
| 20260504025618 | 54 | 0 | 0.0 | 0.0 | 0.00 | 0.00 | 0.00 | 69 | 1016.6 |
| 20260504025003 | 54 | 0 | 0.0 | 0.0 | 0.00 | 0.00 | 0.00 | 66 | 1016.6 |
| 20260504024503 | 55 | 0 | 0.0 | 0.0 | 0.00 | 0.00 | 0.00 | 65 | 1016.6 |
| 20260504024003 | 55 | 0 | 0.0 | 0.0 | 0.00 | 0.00 | 0.00 | 65 | 1016.6 |
| 20260504023618 | 55 | 0 | 0.0 | 0.0 | 0.00 | 0.00 | 0.00 | 65 | 1016.7 |
| 20260504023118 | 55 | 0 | 0.0 | 0.0 | 0.00 | 0.00 | 0.00 | 65 | 1016.8 |
| 20260504022504 | 55 | 0 | 0.0 | 0.0 | 0.00 | 0.00 | 0.00 | 64 | 1016.8 |
| 20260504022003 | 56 | 0 | 0.0 | 0.0 | 0.00 | 0.00 | 0.00 | 62 | 1016.9 |
| 20260504021618 | 56 | 0 | 0.0 | 0.0 | 0.00 | 0.00 | 0.00 | 64 | 1016.7 |
| 20260504021003 | 56 | 0 | 0.0 | 0.0 | 0.00 | 0.00 | 0.00 | 61 | 1016.7 |
| 20260504020618 | 57 | 0 | 0.0 | 0.0 | 0.00 | 0.00 | 0.00 | 61 | 1016.7 |
| 20260504020003 | 57 | 0 | 0.0 | 0.0 | 0.00 | 0.00 | 0.00 | 60 | 1016.6 |
| 20260504015503 | 58 | 0 | 0.0 | 0.0 | 0.00 | 0.00 | 0.00 | 58 | 1016.6 |
| 20260504015004 | 58 | 0 | 0.0 | 0.0 | 0.00 | 0.00 | 0.00 | 58 | 1016.5 |
| 20260504014503 | 58 | 0 | 0.0 | 0.0 | 0.00 | 0.00 | 0.00 | 55 | 1016.4 |
| 20260504014003 | 59 | 0 | 0.0 | 0.0 | 0.00 | 0.00 | 0.00 | 53 | 1016.3 |
| 20260504013503 | 60 | 0 | 0.0 | 0.0 | 0.00 | 0.00 | 0.00 | 52 | 1016.3 |
| 20260504013118 | 60 | 0 | 0.0 | 0.0 | 0.00 | 0.00 | 0.00 | 51 | 1016.1 |
| 20260504012503 | 61 | 0 | 0.0 | 0.0 | 0.00 | 0.00 | 0.00 | 50 | 1016.2 |
| 20260504012118 | 61 | 0 | 0.0 | 0.0 | 0.00 | 0.00 | 0.00 | 48 | 1016.2 |
| 20260504011503 | 62 | 0 | 0.0 | 0.0 | 0.00 | 0.00 | 0.00 | 45 | 1016.0 |
| 20260504011003 | 63 | 0 | 0.0 | 0.0 | 0.00 | 0.00 | 0.00 | 44 | 1016.0 |
| 20260504010504 | 64 | 0 | 0.0 | 0.0 | 0.00 | 0.00 | 0.00 | 43 | 1016.0 |
| 20260504010004 | 64 | 0 | 0.0 | 0.0 | 0.00 | 0.00 | 0.00 | 42 | 1016.0 |
| 20260504005503 | 64 | 0 | 0.0 | 1.0 | 0.00 | 0.00 | 0.00 | 42 | 1015.9 |
| 20260504005118 | 64 | 0 | 0.0 | 1.0 | 0.00 | 0.00 | 0.00 | 41 | 1015.9 |
| 20260504004618 | 65 | 208 | 0.0 | 2.0 | 0.00 | 0.00 | 0.00 | 40 | 1015.9 |
| 20260504004003 | 65 | 197 | 0.0 | 2.0 | 0.00 | 0.00 | 0.00 | 39 | 1015.9 |
| 20260504003619 | 66 | 205 | 1.0 | 4.0 | 0.00 | 0.00 | 0.00 | 38 | 1015.9 |
| 20260504003003 | 66 | 210 | 1.0 | 5.0 | 0.00 | 0.00 | 0.00 | 37 | 1015.8 |
| 20260504002618 | 66 | 220 | 0.0 | 5.0 | 0.00 | 0.00 | 0.00 | 37 | 1015.8 |
| 20260504002003 | 67 | 242 | 1.0 | 4.0 | 0.00 | 0.00 | 0.00 | 37 | 1015.9 |
| 20260504001503 | 67 | 234 | 1.0 | 4.0 | 0.00 | 0.00 | 0.00 | 36 | 1015.9 |
| 20260504001004 | 67 | 196 | 1.0 | 5.0 | 0.00 | 0.00 | 0.00 | 36 | 1016.0 |
| 20260504000503 | 68 | 214 | 3.0 | 5.0 | 0.00 | 0.00 | 0.00 | 35 | 1016.1 |
| 20260504000003 | 68 | 242 | 2.0 | 6.0 | 0.00 | 0.00 | 0.00 | 35 | 1016.0 |
| 20260503235503 | 68 | 226 | 1.0 | 6.0 | 0.00 | 0.00 | 0.00 | 35 | 1016.1 |
| 20260503235003 | 68 | 241 | 2.0 | 7.0 | 0.00 | 0.00 | 0.00 | 34 | 1016.1 |
| 20260503234618 | 68 | 228 | 1.0 | 7.0 | 0.00 | 0.00 | 0.00 | 35 | 1016.2 |
| 20260503234003 | 68 | 223 | 1.0 | 7.0 | 0.00 | 0.00 | 0.00 | 34 | 1016.2 |
| 20260503233503 | 69 | 188 | 2.0 | 7.0 | 0.00 | 0.00 | 0.00 | 33 | 1016.2 |
| 20260503233003 | 69 | 207 | 2.0 | 8.0 | 0.00 | 0.00 | 0.00 | 33 | 1016.3 |
| 20260503232618 | 69 | 228 | 3.0 | 8.0 | 0.00 | 0.00 | 0.00 | 33 | 1016.3 |
| 20260503232003 | 69 | 261 | 2.0 | 8.0 | 0.00 | 0.00 | 0.00 | 32 | 1016.4 |